createdAt,value
2022-10-28T00:01:13.437Z,68548.09
2022-10-28T00:03:43.042Z,68547.31
2022-10-28T00:06:13.925Z,68546.19
2022-10-28T00:08:42.048Z,68536.72
2022-10-28T00:11:12.114Z,68545.63
2022-10-28T00:13:40.588Z,68547.50
2022-10-28T00:16:13.986Z,68553.56
2022-10-28T00:18:42.297Z,68553.56
2022-10-28T00:21:18.436Z,68559.25
2022-10-28T00:23:46.359Z,68560.75
2022-10-28T00:26:16.080Z,68554.72
2022-10-28T00:28:49.350Z,68555.06
2022-10-28T00:31:18.704Z,68552.63
2022-10-28T00:34:04.844Z,68552.41
2022-10-28T00:36:37.990Z,68551.31
2022-10-28T00:39:26.373Z,68551.09
2022-10-28T00:41:59.635Z,68558.69
2022-10-28T00:45:02.104Z,68556.59
2022-10-28T00:47:43.970Z,68568.91
2022-10-28T00:50:20.530Z,68576.66
2022-10-28T00:53:06.681Z,68578.16
2022-10-28T00:55:36.632Z,68580.44
2022-10-28T00:58:08.745Z,68584.22
2022-10-28T01:00:36.259Z,68586.69
2022-10-28T01:03:04.007Z,68585.56
2022-10-28T01:05:42.808Z,68554.09
2022-10-28T01:08:11.220Z,68575.69
2022-10-28T01:11:05.319Z,68574.75
2022-10-28T01:14:03.434Z,68580.25
2022-10-28T01:16:42.736Z,68558.63
2022-10-28T01:19:44.215Z,68579.13
2022-10-28T01:22:24.138Z,68573.25
2022-10-28T01:25:29.731Z,68571.72
2022-10-28T01:28:12.415Z,68567.94
2022-10-28T01:31:04.430Z,68573.66
2022-10-28T01:33:47.047Z,68562.66
2022-10-28T01:36:37.411Z,68560.94
2022-10-28T01:39:12.208Z,68553.56
2022-10-28T01:41:57.036Z,68550.16
2022-10-28T01:44:34.403Z,68544.47
2022-10-28T01:47:16.710Z,68545.78
2022-10-28T01:49:57.025Z,68546.94
2022-10-28T01:52:28.668Z,68550.91
2022-10-28T01:55:12.000Z,68552.41
2022-10-28T01:57:41.679Z,68553.38
2022-10-28T02:00:10.240Z,68551.84
2022-10-28T02:02:42.738Z,68552.41
2022-10-28T02:05:42.996Z,68549.22
2022-10-28T02:08:18.978Z,68553.56
2022-10-28T02:11:03.459Z,68550.91
2022-10-28T02:13:46.729Z,68530.25
2022-10-28T02:16:19.975Z,68547.69
2022-10-28T02:19:11.763Z,68545.44
2022-10-28T02:22:05.100Z,68539.16
2022-10-28T02:24:56.742Z,68537.84
2022-10-28T02:27:47.363Z,68542.22
2022-10-28T02:30:22.933Z,68533.13
2022-10-28T02:33:00.622Z,68527.63
2022-10-28T02:35:39.464Z,68533.50
2022-10-28T02:38:28.975Z,68530.09
2022-10-28T02:41:04.404Z,68528.59
2022-10-28T02:43:35.933Z,68525.38
2022-10-28T02:46:04.787Z,68526.31
2022-10-28T02:48:39.930Z,68526.72
2022-10-28T02:51:11.791Z,68521.41
2022-10-28T02:53:54.810Z,68499.59
2022-10-28T02:56:22.690Z,68520.66
2022-10-28T02:58:50.208Z,68523.47
2022-10-28T03:01:17.676Z,68517.22
2022-10-28T03:03:45.411Z,68522.53
2022-10-28T03:06:12.828Z,68512.50
2022-10-28T03:08:44.224Z,68516.13
2022-10-28T03:11:12.311Z,68514.97
2022-10-28T03:13:39.978Z,68516.28
2022-10-28T03:16:07.225Z,68519.13
2022-10-28T03:18:34.706Z,68512.69
2022-10-28T03:21:01.965Z,68516.13
2022-10-28T03:23:29.196Z,68511.00
2022-10-28T03:25:56.446Z,68509.84
2022-10-28T03:28:23.689Z,68508.72
2022-10-28T03:30:50.913Z,68506.06
2022-10-28T03:33:18.347Z,68508.53
2022-10-28T03:35:45.696Z,68506.81
2022-10-28T03:38:13.020Z,68506.63
2022-10-28T03:40:40.214Z,68503.97
2022-10-28T03:43:07.517Z,68500.00
2022-10-28T03:45:34.963Z,68491.88
2022-10-28T03:48:02.315Z,68489.22
2022-10-28T03:50:29.580Z,68470.09
2022-10-28T03:52:57.301Z,68493.38
2022-10-28T03:55:25.762Z,68486.19
2022-10-28T03:57:53.870Z,68483.91
2022-10-28T04:00:21.708Z,68484.69
2022-10-28T04:02:53.437Z,68489.22
2022-10-28T04:05:25.091Z,68484.88
2022-10-28T04:07:54.175Z,68485.81
2022-10-28T04:10:21.548Z,68486.38
2022-10-28T04:12:49.751Z,68478.25
2022-10-28T04:15:17.119Z,68480.16
2022-10-28T04:17:44.341Z,68481.66
2022-10-28T04:20:11.982Z,68483.19
2022-10-28T04:22:39.251Z,68478.81
2022-10-28T04:25:07.568Z,68481.47
2022-10-28T04:27:35.112Z,68476.56
2022-10-28T04:30:02.953Z,68475.41
2022-10-28T04:32:30.466Z,68478.81
2022-10-28T04:34:57.696Z,68476.34
2022-10-28T04:37:24.918Z,68452.50
2022-10-28T04:39:53.005Z,68469.72
2022-10-28T04:42:20.309Z,68480.72
2022-10-28T04:44:47.594Z,68469.56
2022-10-28T04:47:14.881Z,68470.69
2022-10-28T04:49:42.125Z,68445.72
2022-10-28T04:52:12.090Z,68462.34
2022-10-28T04:54:42.102Z,68463.50
2022-10-28T04:57:09.573Z,68464.44
2022-10-28T04:59:37.552Z,68458.97
2022-10-28T05:02:04.993Z,68463.88
2022-10-28T05:04:32.373Z,68460.47
2022-10-28T05:06:59.674Z,68459.31
2022-10-28T05:09:26.986Z,68464.81
2022-10-28T05:11:54.463Z,68464.44
2022-10-28T05:14:21.737Z,68463.31
2022-10-28T05:16:49.199Z,68466.34
2022-10-28T05:19:16.687Z,68458.97
2022-10-28T05:21:44.008Z,68461.03
2022-10-28T05:24:11.256Z,68452.91
2022-10-28T05:26:38.571Z,68457.06
2022-10-28T05:29:06.226Z,68462.56
2022-10-28T05:31:33.561Z,68464.63
2022-10-28T05:34:00.789Z,68453.66
2022-10-28T05:36:28.090Z,68451.00
2022-10-28T05:38:55.288Z,68448.34
2022-10-28T05:41:23.372Z,68449.69
2022-10-28T05:43:53.673Z,68449.69
2022-10-28T05:46:25.461Z,68443.44
2022-10-28T05:48:55.502Z,68446.66
2022-10-28T05:51:22.971Z,68442.88
2022-10-28T05:53:51.304Z,68443.84
2022-10-28T05:56:18.819Z,68440.97
2022-10-28T05:58:47.593Z,68439.47
2022-10-28T06:01:15.051Z,68438.91
2022-10-28T06:03:42.620Z,68432.31
2022-10-28T06:06:10.038Z,68435.50
2022-10-28T06:08:37.300Z,68431.91
2022-10-28T06:11:03.207Z,68433.44
2022-10-28T06:13:30.588Z,68432.09
2022-10-28T06:15:57.989Z,68437.78
2022-10-28T06:18:25.354Z,68436.66
2022-10-28T06:20:54.605Z,68437.22
2022-10-28T06:23:22.763Z,68435.13
2022-10-28T06:25:54.698Z,68434.00
2022-10-28T06:28:22.230Z,68436.06
2022-10-28T06:30:49.460Z,68436.66
2022-10-28T06:33:16.869Z,68442.50
2022-10-28T06:35:44.203Z,68442.31
2022-10-28T06:38:11.466Z,68443.66
2022-10-28T06:40:38.770Z,68450.63
2022-10-28T06:43:07.003Z,68458.22
2022-10-28T06:45:34.317Z,68460.47
2022-10-28T06:48:05.731Z,68462.19
2022-10-28T06:50:34.640Z,68463.31
2022-10-28T06:53:02.421Z,68465.00
2022-10-28T06:55:29.741Z,68448.53
2022-10-28T06:58:04.092Z,68481.28
2022-10-28T07:00:33.384Z,68480.31
2022-10-28T07:03:01.067Z,68484.13
2022-10-28T07:05:28.695Z,68491.28
2022-10-28T07:07:56.274Z,68496.97
2022-10-28T07:10:24.528Z,68509.28
2022-10-28T07:12:53.805Z,68520.81
2022-10-28T07:15:21.625Z,68508.69
2022-10-28T07:17:56.777Z,68540.13
2022-10-28T07:20:26.161Z,68546.75
2022-10-28T07:23:00.860Z,68561.34
2022-10-28T07:25:30.316Z,68564.38
2022-10-28T07:28:00.849Z,68564.53
2022-10-28T07:30:29.142Z,68571.38
2022-10-28T07:32:58.634Z,68579.66
2022-10-28T07:35:25.900Z,68585.00
2022-10-28T07:37:53.405Z,68598.97
2022-10-28T07:40:21.758Z,68622.84
2022-10-28T07:42:49.131Z,68643.66
2022-10-28T07:45:18.121Z,68627.91
2022-10-28T07:47:45.786Z,68662.22
2022-10-28T07:50:13.427Z,68668.88
2022-10-28T07:52:40.667Z,68699.56
2022-10-28T07:55:08.681Z,68721.66
2022-10-28T07:57:41.241Z,68759.16
2022-10-28T08:00:09.335Z,68804.75
2022-10-28T08:02:40.380Z,68803.63
2022-10-28T08:05:12.668Z,68824.06
2022-10-28T08:07:39.925Z,68779.13
2022-10-28T08:10:07.977Z,68702.34
2022-10-28T08:12:35.243Z,68718.69
2022-10-28T08:15:02.917Z,68713.38
2022-10-28T08:17:31.338Z,68722.09
2022-10-28T08:19:59.033Z,68712.81
2022-10-28T08:22:26.355Z,68730.25
2022-10-28T08:24:53.641Z,68747.88
2022-10-28T08:27:20.950Z,68761.50
2022-10-28T08:29:48.294Z,68760.00
2022-10-28T08:32:15.554Z,68761.50
2022-10-28T08:34:43.752Z,68779.72
2022-10-28T08:37:11.301Z,68777.63
2022-10-28T08:39:38.565Z,68805.88
2022-10-28T08:42:22.600Z,68835.66
2022-10-28T08:44:56.919Z,68844.72
2022-10-28T08:50:46.588Z,68938.06
2022-10-28T08:53:21.454Z,68953.44
2022-10-28T08:55:50.911Z,68985.31
2022-10-28T08:58:31.199Z,69018.63
2022-10-28T09:01:02.035Z,69072.88
2022-10-28T09:03:39.010Z,69082.16
2022-10-28T09:06:09.185Z,69057.66
2022-10-28T09:08:40.576Z,69023.31
2022-10-28T09:11:10.865Z,68978.47
2022-10-28T09:13:41.420Z,68980.19
2022-10-28T09:16:18.347Z,68999.38
2022-10-28T09:18:51.592Z,69046.84
2022-10-28T09:21:40.668Z,69100.78
2022-10-28T09:24:18.839Z,69149.41
2022-10-28T09:27:04.212Z,69139.41
2022-10-28T09:29:55.497Z,69134.00
2022-10-28T09:33:00.887Z,69109.75
2022-10-28T09:35:34.002Z,69108.38
2022-10-28T09:38:25.831Z,69102.91
2022-10-28T09:40:58.444Z,69083.69
2022-10-28T09:43:31.083Z,69071.56
2022-10-28T09:46:04.247Z,69012.09
2022-10-28T09:48:37.227Z,68996.72
2022-10-28T09:51:08.230Z,68997.84
2022-10-28T09:53:53.002Z,69007.34
2022-10-28T09:56:20.294Z,69015.31
2022-10-28T09:58:48.465Z,69014.38
2022-10-28T10:01:18.704Z,69021.03
2022-10-28T10:03:50.954Z,69003.94
2022-10-28T10:06:40.078Z,68994.81
2022-10-28T10:09:21.350Z,68995.97
2022-10-28T10:11:50.567Z,68989.56
2022-10-28T10:14:28.820Z,69019.19
2022-10-28T10:17:12.260Z,69059.78
2022-10-28T10:20:03.766Z,69078.56
2022-10-28T10:22:42.542Z,69074.00
2022-10-28T10:25:18.744Z,69079.31
2022-10-28T10:28:00.760Z,69052.81
2022-10-28T10:30:46.530Z,69076.72
2022-10-28T10:33:29.709Z,69115.44
2022-10-28T10:36:13.087Z,69080.16
2022-10-28T10:38:49.121Z,69115.03
2022-10-28T10:41:37.922Z,69116.91
2022-10-28T10:44:20.448Z,69131.16
2022-10-28T10:47:11.043Z,69092.09
2022-10-28T10:49:38.257Z,69121.47
2022-10-28T10:52:19.347Z,69111.78
2022-10-28T10:54:58.813Z,69138.22
2022-10-28T10:57:26.744Z,69135.16
2022-10-28T10:59:54.635Z,69110.31
2022-10-28T11:02:34.949Z,69135.16
2022-10-28T11:05:06.631Z,69143.94
2022-10-28T11:07:34.833Z,69145.25
2022-10-28T11:10:02.339Z,69128.50
2022-10-28T11:12:33.252Z,69116.75
2022-10-28T11:15:03.924Z,69108.63
2022-10-28T11:17:35.343Z,69143.88
2022-10-28T11:20:26.207Z,69101.78
2022-10-28T11:23:26.408Z,69073.63
2022-10-28T11:25:58.511Z,69057.50
2022-10-28T11:28:56.441Z,69035.25
2022-10-28T11:31:48.593Z,69015.31
2022-10-28T11:34:27.845Z,69001.09
2022-10-28T11:37:13.233Z,68995.41
2022-10-28T11:39:49.907Z,68989.13
2022-10-28T11:42:28.823Z,68988.75
2022-10-28T11:45:10.498Z,68984.56
2022-10-28T11:48:16.301Z,68952.03
2022-10-28T11:50:58.309Z,68978.13
2022-10-28T11:53:52.955Z,68982.31
2022-10-28T11:56:29.730Z,69017.03
2022-10-28T11:59:15.857Z,69038.84
2022-10-28T12:01:58.331Z,69054.66
2022-10-28T12:04:31.409Z,69061.09
2022-10-28T12:07:32.192Z,69078.00
2022-10-28T12:10:18.031Z,69104.22
2022-10-28T12:12:52.323Z,69120.16
2022-10-28T12:15:43.641Z,69124.16
2022-10-28T12:18:49.366Z,69102.91
2022-10-28T12:21:22.489Z,69131.56
2022-10-28T12:23:50.475Z,69135.38
2022-10-28T12:26:20.926Z,69124.31
2022-10-28T12:29:01.299Z,69116.75
2022-10-28T12:32:00.707Z,69131.56
2022-10-28T12:37:19.923Z,69149.97
2022-10-28T12:40:06.132Z,69156.25
2022-10-28T12:42:39.591Z,69162.00
2022-10-28T12:45:14.276Z,69156.81
2022-10-28T12:47:56.736Z,69144.28
2022-10-28T12:50:38.332Z,69104.63
2022-10-28T12:53:06.040Z,69125.28
2022-10-28T12:55:44.358Z,69104.53
2022-10-28T12:58:17.410Z,69095.25
2022-10-28T13:00:50.551Z,69056.78
2022-10-28T13:03:18.998Z,69068.66
2022-10-28T13:06:02.304Z,69075.16
2022-10-28T13:08:48.029Z,69081.03
2022-10-28T13:11:21.136Z,69063.38
2022-10-28T13:14:11.710Z,69043.69
2022-10-28T13:17:07.487Z,69040.84
2022-10-28T13:19:58.764Z,69062.81
2022-10-28T13:22:45.800Z,69038.00
2022-10-28T13:25:25.088Z,69034.00
2022-10-28T13:28:02.351Z,69026.59
2022-10-28T13:30:32.372Z,69032.78
2022-10-28T13:33:08.191Z,69037.13
2022-10-28T13:35:37.027Z,69016.34
2022-10-28T13:38:11.757Z,69039.72
2022-10-28T13:40:39.181Z,69069.81
2022-10-28T13:43:19.947Z,69055.66
2022-10-28T13:45:55.765Z,69085.00
2022-10-28T13:48:29.312Z,69084.84
2022-10-28T13:51:11.696Z,69082.34
2022-10-28T13:53:41.968Z,69077.44
2022-10-28T13:56:26.919Z,69071.34
2022-10-28T13:58:59.460Z,69065.84
2022-10-28T14:01:41.933Z,69055.59
2022-10-28T14:04:34.394Z,69024.91
2022-10-28T14:07:12.657Z,69042.66
2022-10-28T14:09:41.564Z,69026.72
2022-10-28T14:12:24.779Z,69023.84
2022-10-28T14:15:18.193Z,69019.31
2022-10-28T14:17:55.987Z,69009.78
2022-10-28T14:20:58.853Z,68984.44
2022-10-28T14:23:27.234Z,68999.94
2022-10-28T14:25:55.034Z,68989.53
2022-10-28T14:28:29.108Z,68974.50
2022-10-28T14:31:08.459Z,68958.97
2022-10-28T14:33:42.801Z,68948.72
2022-10-28T14:36:19.174Z,68943.03
2022-10-28T14:39:04.572Z,68929.38
2022-10-28T14:41:59.546Z,68899.66
2022-10-28T14:44:51.576Z,68894.53
2022-10-28T14:47:49.858Z,68884.84
2022-10-28T14:50:21.426Z,68882.00
2022-10-28T14:52:50.384Z,68871.19
2022-10-28T14:55:24.850Z,68886.28
2022-10-28T14:57:52.774Z,68889.09
2022-10-28T15:00:25.880Z,68880.38
2022-10-28T15:02:54.959Z,68847.88
2022-10-28T15:05:26.000Z,68866.94
2022-10-28T15:07:53.980Z,68857.81
2022-10-28T15:10:30.613Z,68858.38
2022-10-28T15:13:00.753Z,68863.16
2022-10-28T15:15:33.032Z,68826.84
2022-10-28T15:18:01.536Z,68850.25
2022-10-28T15:20:30.786Z,68845.13
2022-10-28T15:23:19.621Z,68844.56
2022-10-28T15:26:10.181Z,68839.25
2022-10-28T15:28:39.155Z,68841.53
2022-10-28T15:31:06.868Z,68821.03
2022-10-28T15:33:41.911Z,68817.44
2022-10-28T15:36:18.350Z,68820.69
2022-10-28T15:38:50.854Z,68816.88
2022-10-28T15:41:30.472Z,68813.28
2022-10-28T15:44:00.665Z,68812.72
2022-10-28T15:46:29.829Z,68787.03
2022-10-28T15:49:02.012Z,68808.75
2022-10-28T15:51:30.509Z,68799.81
2022-10-28T15:54:12.009Z,68801.34
2022-10-28T15:56:56.766Z,68805.88
2022-10-28T15:59:28.027Z,68789.16
2022-10-28T16:01:57.556Z,68796.75
2022-10-28T16:04:24.830Z,68796.75
2022-10-28T16:06:54.709Z,68794.09
2022-10-28T16:09:32.330Z,68794.69
2022-10-28T16:12:04.643Z,68793.53
2022-10-28T16:14:35.342Z,68792.00
2022-10-28T16:17:13.744Z,68800.19
2022-10-28T16:19:50.086Z,68793.16
2022-10-28T16:22:18.427Z,68805.88
2022-10-28T16:24:46.046Z,68805.31
2022-10-28T16:27:18.811Z,68802.84
2022-10-28T16:29:46.545Z,68800.38
2022-10-28T16:32:15.168Z,68807.59
2022-10-28T16:34:42.779Z,68811.22
2022-10-28T16:37:31.035Z,68814.41
2022-10-28T16:39:58.528Z,68814.41
2022-10-28T16:42:26.945Z,68816.91
2022-10-28T16:44:54.954Z,68812.53
2022-10-28T16:47:26.757Z,68811.56
2022-10-28T16:49:57.232Z,68809.47
2022-10-28T16:52:40.139Z,68809.47
2022-10-28T16:55:19.710Z,68802.66
2022-10-28T16:57:47.099Z,68808.75
2022-10-28T17:00:15.068Z,68805.31
2022-10-28T17:02:43.012Z,68800.19
2022-10-28T17:05:30.051Z,68804.19
2022-10-28T17:12:26.629Z,68794.50
2022-10-28T17:14:56.722Z,68788.59
2022-10-28T17:17:25.075Z,68794.88
2022-10-28T17:19:52.597Z,68782.53
2022-10-28T17:22:19.997Z,68780.84
2022-10-28T17:28:20.864Z,68783.50
2022-10-28T17:30:48.685Z,68770.22
2022-10-28T17:33:16.132Z,68769.47
2022-10-28T17:35:43.639Z,68771.19
2022-10-28T17:38:11.044Z,68768.34
2022-10-28T17:40:38.516Z,68767.59
2022-10-28T17:43:40.284Z,68760.94
2022-10-28T17:46:08.377Z,68759.41
2022-10-28T17:48:35.966Z,68759.41
2022-10-28T17:51:03.890Z,68765.88
2022-10-28T17:53:31.169Z,68754.13
2022-10-28T17:55:59.953Z,68754.69
2022-10-28T17:58:29.088Z,68764.38
2022-10-28T18:01:05.148Z,68754.69
2022-10-28T18:03:38.248Z,68762.66
2022-10-28T18:06:13.231Z,68765.50
2022-10-28T18:08:42.892Z,68763.78
2022-10-28T18:11:13.632Z,68764.53
2022-10-28T18:13:45.181Z,68766.44
2022-10-28T18:16:15.195Z,68760.38
2022-10-28T18:18:43.846Z,68758.69
2022-10-28T18:21:26.614Z,68748.44
2022-10-28T18:24:03.881Z,68748.44
2022-10-28T18:26:34.473Z,68744.09
2022-10-28T18:29:04.057Z,68750.13
2022-10-28T18:31:34.648Z,68747.09
2022-10-28T18:34:02.642Z,68726.19
2022-10-28T18:36:36.931Z,68759.44
2022-10-28T18:39:06.888Z,68754.13
2022-10-28T18:41:38.375Z,68745.41
2022-10-28T18:44:52.055Z,68749.19
2022-10-28T18:47:19.565Z,68754.69
2022-10-28T18:49:47.178Z,68748.06
2022-10-28T18:52:38.269Z,68747.31
2022-10-28T18:55:48.454Z,68739.53
2022-10-28T18:58:31.046Z,68743.31
2022-10-28T19:01:05.603Z,68745.59
2022-10-28T19:03:33.340Z,68734.97
2022-10-28T19:06:03.201Z,68737.63
2022-10-28T19:08:31.580Z,68730.44
2022-10-28T19:10:59.983Z,68730.81
2022-10-28T19:13:27.774Z,68722.13
2022-10-28T19:15:56.316Z,68693.22
2022-10-28T19:18:23.789Z,68700.06
2022-10-28T19:20:51.315Z,68724.16
2022-10-28T19:23:18.822Z,68724.00
2022-10-28T19:25:57.204Z,68725.13
2022-10-28T19:28:25.303Z,68722.84
2022-10-28T19:31:01.323Z,68721.72
2022-10-28T19:33:30.866Z,68718.13
2022-10-28T19:36:25.331Z,68722.28
2022-10-28T19:38:54.893Z,68720.03
2022-10-28T19:41:25.284Z,68717.94
2022-10-28T19:43:58.916Z,68717.38
2022-10-28T19:46:29.028Z,68719.81
2022-10-28T19:48:59.431Z,68719.47
2022-10-28T19:51:32.593Z,68716.81
2022-10-28T19:54:05.014Z,68720.59
2022-10-28T20:03:51.059Z,68712.63
2022-10-28T20:06:20.458Z,68707.50
2022-10-28T20:08:49.648Z,68702.97
2022-10-28T20:11:24.711Z,68696.91
2022-10-28T20:14:00.360Z,68696.50
2022-10-28T20:16:28.495Z,68704.13
2022-10-28T20:18:57.635Z,68701.25
2022-10-28T20:21:30.141Z,68691.97
2022-10-28T20:23:58.372Z,68699.00
2022-10-28T20:26:30.006Z,68697.84
2022-10-28T20:28:59.607Z,68703.53
2022-10-28T20:31:29.781Z,68702.41
2022-10-28T20:34:03.776Z,68681.31
2022-10-28T20:36:32.733Z,68693.69
2022-10-28T20:39:23.553Z,68707.69
2022-10-28T20:41:51.410Z,68691.03
2022-10-28T20:44:18.709Z,68687.81
2022-10-28T20:46:48.115Z,68689.91
2022-10-28T20:49:15.754Z,68687.81
2022-10-28T20:51:52.195Z,68693.31
2022-10-28T20:54:19.606Z,68686.50
2022-10-28T20:56:46.958Z,68693.88
2022-10-28T20:59:54.487Z,68687.63
2022-10-28T21:02:22.049Z,68686.50
2022-10-28T21:04:50.348Z,68689.34
2022-10-28T21:07:17.851Z,68689.34
2022-10-28T21:09:45.308Z,68679.09
2022-10-28T21:12:34.165Z,68674.56
2022-10-28T21:15:01.565Z,68674.19
2022-10-28T21:17:50.224Z,68656.31
2022-10-28T21:20:17.680Z,68695.56
2022-10-28T21:22:45.053Z,68694.44
2022-10-28T21:25:12.751Z,68678.53
2022-10-28T21:30:27.340Z,68674.00
2022-10-28T21:32:55.144Z,68677.41
2022-10-28T21:35:27.637Z,68672.28
2022-10-28T21:37:56.349Z,68690.28
2022-10-28T21:40:24.302Z,68689.34
2022-10-28T21:42:51.936Z,68670.19
2022-10-28T21:45:21.082Z,68673.59
2022-10-28T21:47:48.599Z,68685.34
2022-10-28T21:50:16.194Z,68685.53
2022-10-28T21:52:43.727Z,68668.13
2022-10-28T21:55:20.314Z,68674.75
2022-10-28T21:58:07.443Z,68679.09
2022-10-28T22:00:34.910Z,68680.44
2022-10-28T22:03:02.310Z,68685.91
2022-10-28T22:05:29.771Z,68680.44
2022-10-28T22:07:57.252Z,68687.06
2022-10-28T22:10:24.762Z,68689.34
2022-10-28T22:12:52.133Z,68680.81
2022-10-28T22:15:43.222Z,68685.91
2022-10-28T22:18:11.333Z,68696.72
2022-10-28T22:20:38.745Z,68661.28
2022-10-28T22:23:06.086Z,68663.19
2022-10-28T22:25:33.510Z,68665.66
2022-10-28T22:28:00.950Z,68677.41
2022-10-28T22:31:14.084Z,68699.16
2022-10-28T22:33:42.234Z,68708.09
2022-10-28T22:36:13.191Z,68703.13
2022-10-28T22:41:47.121Z,68672.84
2022-10-28T22:44:14.625Z,68660.34
2022-10-28T22:46:43.227Z,68656.56
2022-10-28T22:49:42.109Z,68654.47
2022-10-28T22:52:09.473Z,68651.63
2022-10-28T22:54:48.520Z,68644.03
2022-10-28T22:57:17.335Z,68648.78
2022-10-28T23:00:15.832Z,68677.56
2022-10-28T23:03:09.791Z,68687.44
2022-10-28T23:05:37.526Z,68678.53
2022-10-28T23:08:22.586Z,68675.63
2022-10-28T23:10:49.998Z,68717.94
2022-10-28T23:13:26.955Z,68732.91
2022-10-28T23:15:56.042Z,68696.09
2022-10-28T23:18:28.161Z,68696.34
2022-10-28T23:21:48.921Z,68691.78
2022-10-28T23:24:16.804Z,68704.28
2022-10-28T23:26:44.169Z,68739.34
2022-10-28T23:29:11.653Z,68767.94
2022-10-28T23:31:39.080Z,68756.78
2022-10-28T23:35:07.560Z,68741.06
2022-10-28T23:38:02.929Z,68731.41
2022-10-28T23:40:30.399Z,68728.38
2022-10-28T23:43:22.635Z,68734.78
2022-10-28T23:45:50.142Z,68744.28
2022-10-28T23:48:17.647Z,68739.91
2022-10-28T23:50:45.156Z,68736.09
2022-10-28T23:57:45.696Z,68741.41
